sensor_id;sensor_type;location;lat;lon;timestamp;P1;durP1;ratioP1;P2;durP2;ratioP2
14076;SDS011;7114;51.100;13.998;2022-07-24T00:01:14;15.90;;;8.82;;
14076;SDS011;7114;51.100;13.998;2022-07-24T00:03:40;18.45;;;9.82;;
14076;SDS011;7114;51.100;13.998;2022-07-24T00:06:06;16.60;;;9.77;;
14076;SDS011;7114;51.100;13.998;2022-07-24T00:08:34;16.73;;;9.40;;
14076;SDS011;7114;51.100;13.998;2022-07-24T00:11:00;18.33;;;10.80;;
14076;SDS011;7114;51.100;13.998;2022-07-24T00:13:27;18.15;;;10.52;;
14076;SDS011;7114;51.100;13.998;2022-07-24T00:15:53;18.27;;;11.25;;
14076;SDS011;7114;51.100;13.998;2022-07-24T00:18:19;17.35;;;10.02;;
14076;SDS011;7114;51.100;13.998;2022-07-24T00:20:46;17.17;;;9.45;;
14076;SDS011;7114;51.100;13.998;2022-07-24T00:23:12;16.80;;;9.60;;
14076;SDS011;7114;51.100;13.998;2022-07-24T00:25:40;16.55;;;10.13;;
14076;SDS011;7114;51.100;13.998;2022-07-24T00:28:06;16.38;;;9.20;;
14076;SDS011;7114;51.100;13.998;2022-07-24T00:30:32;18.70;;;10.27;;
14076;SDS011;7114;51.100;13.998;2022-07-24T00:32:58;17.45;;;10.07;;
14076;SDS011;7114;51.100;13.998;2022-07-24T00:35:25;17.87;;;10.17;;
14076;SDS011;7114;51.100;13.998;2022-07-24T00:37:51;17.23;;;10.65;;
14076;SDS011;7114;51.100;13.998;2022-07-24T00:40:18;20.05;;;11.70;;
14076;SDS011;7114;51.100;13.998;2022-07-24T00:42:46;18.45;;;10.98;;
14076;SDS011;7114;51.100;13.998;2022-07-24T00:45:12;18.73;;;10.35;;
14076;SDS011;7114;51.100;13.998;2022-07-24T00:47:39;17.50;;;10.53;;
14076;SDS011;7114;51.100;13.998;2022-07-24T00:50:05;17.20;;;10.15;;
14076;SDS011;7114;51.100;13.998;2022-07-24T00:52:32;16.30;;;9.75;;
14076;SDS011;7114;51.100;13.998;2022-07-24T00:54:58;19.70;;;10.38;;
14076;SDS011;7114;51.100;13.998;2022-07-24T00:57:25;16.95;;;9.70;;
14076;SDS011;7114;51.100;13.998;2022-07-24T00:59:53;16.23;;;9.53;;
14076;SDS011;7114;51.100;13.998;2022-07-24T01:02:19;15.63;;;9.23;;
14076;SDS011;7114;51.100;13.998;2022-07-24T01:04:45;17.83;;;9.93;;
14076;SDS011;7114;51.100;13.998;2022-07-24T01:07:11;17.75;;;10.13;;
14076;SDS011;7114;51.100;13.998;2022-07-24T01:09:38;18.88;;;10.27;;
14076;SDS011;7114;51.100;13.998;2022-07-24T01:12:05;18.17;;;10.63;;
14076;SDS011;7114;51.100;13.998;2022-07-24T01:14:32;18.95;;;10.25;;
14076;SDS011;7114;51.100;13.998;2022-07-24T01:16:59;18.60;;;11.07;;
14076;SDS011;7114;51.100;13.998;2022-07-24T01:19:26;17.02;;;10.20;;
14076;SDS011;7114;51.100;13.998;2022-07-24T01:21:54;19.60;;;11.68;;
14076;SDS011;7114;51.100;13.998;2022-07-24T01:24:20;19.83;;;11.20;;
14076;SDS011;7114;51.100;13.998;2022-07-24T01:26:47;19.25;;;11.50;;
14076;SDS011;7114;51.100;13.998;2022-07-24T01:29:13;19.67;;;11.40;;
14076;SDS011;7114;51.100;13.998;2022-07-24T01:31:40;18.33;;;10.48;;
14076;SDS011;7114;51.100;13.998;2022-07-24T01:34:06;16.85;;;9.60;;
14076;SDS011;7114;51.100;13.998;2022-07-24T01:36:33;15.43;;;9.27;;
14076;SDS011;7114;51.100;13.998;2022-07-24T01:39:00;17.92;;;9.80;;
14076;SDS011;7114;51.100;13.998;2022-07-24T01:41:27;17.33;;;9.80;;
14076;SDS011;7114;51.100;13.998;2022-07-24T01:43:53;16.65;;;9.80;;
14076;SDS011;7114;51.100;13.998;2022-07-24T01:46:19;16.17;;;9.65;;
14076;SDS011;7114;51.100;13.998;2022-07-24T01:48:46;17.27;;;9.87;;
14076;SDS011;7114;51.100;13.998;2022-07-24T01:51:12;17.77;;;10.10;;
14076;SDS011;7114;51.100;13.998;2022-07-24T01:53:38;19.40;;;10.93;;
14076;SDS011;7114;51.100;13.998;2022-07-24T01:56:06;19.60;;;10.43;;
14076;SDS011;7114;51.100;13.998;2022-07-24T01:58:33;19.00;;;10.85;;
14076;SDS011;7114;51.100;13.998;2022-07-24T02:00:59;19.73;;;10.33;;
14076;SDS011;7114;51.100;13.998;2022-07-24T02:03:25;17.25;;;9.93;;
14076;SDS011;7114;51.100;13.998;2022-07-24T02:05:51;18.73;;;10.45;;
14076;SDS011;7114;51.100;13.998;2022-07-24T02:08:18;16.67;;;9.75;;
14076;SDS011;7114;51.100;13.998;2022-07-24T02:10:44;16.90;;;9.52;;
14076;SDS011;7114;51.100;13.998;2022-07-24T02:13:12;16.93;;;9.43;;
14076;SDS011;7114;51.100;13.998;2022-07-24T02:15:38;16.00;;;9.30;;
14076;SDS011;7114;51.100;13.998;2022-07-24T02:18:04;15.63;;;8.75;;
14076;SDS011;7114;51.100;13.998;2022-07-24T02:20:31;15.18;;;8.95;;
14076;SDS011;7114;51.100;13.998;2022-07-24T02:22:57;16.40;;;8.75;;
14076;SDS011;7114;51.100;13.998;2022-07-24T02:25:24;16.00;;;8.97;;
14076;SDS011;7114;51.100;13.998;2022-07-24T02:27:50;16.05;;;9.75;;
14076;SDS011;7114;51.100;13.998;2022-07-24T02:30:19;15.75;;;8.93;;
14076;SDS011;7114;51.100;13.998;2022-07-24T02:32:46;14.23;;;8.52;;
14076;SDS011;7114;51.100;13.998;2022-07-24T02:35:12;13.90;;;8.00;;
14076;SDS011;7114;51.100;13.998;2022-07-24T02:37:39;13.93;;;8.17;;
14076;SDS011;7114;51.100;13.998;2022-07-24T02:40:07;13.30;;;7.45;;
14076;SDS011;7114;51.100;13.998;2022-07-24T02:42:34;14.20;;;7.70;;
14076;SDS011;7114;51.100;13.998;2022-07-24T02:45:01;13.55;;;7.30;;
14076;SDS011;7114;51.100;13.998;2022-07-24T02:47:29;13.20;;;7.60;;
14076;SDS011;7114;51.100;13.998;2022-07-24T02:49:55;13.20;;;7.43;;
14076;SDS011;7114;51.100;13.998;2022-07-24T02:52:22;13.32;;;7.82;;
14076;SDS011;7114;51.100;13.998;2022-07-24T02:54:48;14.25;;;7.40;;
14076;SDS011;7114;51.100;13.998;2022-07-24T02:57:14;12.95;;;7.47;;
14076;SDS011;7114;51.100;13.998;2022-07-24T02:59:41;13.32;;;8.30;;
14076;SDS011;7114;51.100;13.998;2022-07-24T03:02:08;16.90;;;9.93;;
14076;SDS011;7114;51.100;13.998;2022-07-24T03:04:35;18.75;;;10.35;;
14076;SDS011;7114;51.100;13.998;2022-07-24T03:07:02;17.77;;;10.07;;
14076;SDS011;7114;51.100;13.998;2022-07-24T03:09:28;16.45;;;9.30;;
14076;SDS011;7114;51.100;13.998;2022-07-24T03:11:54;14.38;;;8.07;;
14076;SDS011;7114;51.100;13.998;2022-07-24T03:14:20;15.60;;;8.87;;
14076;SDS011;7114;51.100;13.998;2022-07-24T03:16:47;15.10;;;8.63;;
14076;SDS011;7114;51.100;13.998;2022-07-24T03:19:13;15.13;;;8.63;;
14076;SDS011;7114;51.100;13.998;2022-07-24T03:21:40;16.55;;;9.50;;
14076;SDS011;7114;51.100;13.998;2022-07-24T03:24:07;17.08;;;9.52;;
14076;SDS011;7114;51.100;13.998;2022-07-24T03:26:33;16.20;;;9.33;;
14076;SDS011;7114;51.100;13.998;2022-07-24T03:28:59;16.08;;;9.15;;
14076;SDS011;7114;51.100;13.998;2022-07-24T03:31:26;16.67;;;9.10;;
14076;SDS011;7114;51.100;13.998;2022-07-24T03:33:52;15.07;;;8.98;;
14076;SDS011;7114;51.100;13.998;2022-07-24T03:36:18;15.55;;;8.43;;
14076;SDS011;7114;51.100;13.998;2022-07-24T03:38:46;15.37;;;8.60;;
14076;SDS011;7114;51.100;13.998;2022-07-24T03:41:12;14.93;;;8.43;;
14076;SDS011;7114;51.100;13.998;2022-07-24T03:43:38;14.43;;;8.23;;
14076;SDS011;7114;51.100;13.998;2022-07-24T03:46:05;15.80;;;8.85;;
14076;SDS011;7114;51.100;13.998;2022-07-24T03:48:31;15.13;;;8.40;;
14076;SDS011;7114;51.100;13.998;2022-07-24T03:50:57;14.20;;;8.10;;
14076;SDS011;7114;51.100;13.998;2022-07-24T03:53:24;14.18;;;8.43;;
14076;SDS011;7114;51.100;13.998;2022-07-24T03:55:51;16.40;;;8.55;;
14076;SDS011;7114;51.100;13.998;2022-07-24T03:58:18;15.18;;;8.50;;
14076;SDS011;7114;51.100;13.998;2022-07-24T04:00:44;14.90;;;8.02;;
14076;SDS011;7114;51.100;13.998;2022-07-24T04:03:10;13.13;;;7.63;;
14076;SDS011;7114;51.100;13.998;2022-07-24T04:05:36;13.63;;;7.30;;
14076;SDS011;7114;51.100;13.998;2022-07-24T04:08:03;14.35;;;8.05;;
14076;SDS011;7114;51.100;13.998;2022-07-24T04:10:29;11.82;;;6.72;;
14076;SDS011;7114;51.100;13.998;2022-07-24T04:12:57;13.73;;;7.65;;
14076;SDS011;7114;51.100;13.998;2022-07-24T04:15:23;13.67;;;8.43;;
14076;SDS011;7114;51.100;13.998;2022-07-24T04:17:49;14.35;;;8.07;;
14076;SDS011;7114;51.100;13.998;2022-07-24T04:20:15;15.55;;;8.77;;
14076;SDS011;7114;51.100;13.998;2022-07-24T04:22:42;15.82;;;8.77;;
14076;SDS011;7114;51.100;13.998;2022-07-24T04:25:08;16.13;;;8.98;;
14076;SDS011;7114;51.100;13.998;2022-07-24T04:27:34;17.53;;;8.77;;
14076;SDS011;7114;51.100;13.998;2022-07-24T04:30:03;16.20;;;9.40;;
14076;SDS011;7114;51.100;13.998;2022-07-24T04:32:30;17.15;;;9.63;;
14076;SDS011;7114;51.100;13.998;2022-07-24T04:34:56;20.42;;;10.02;;
14076;SDS011;7114;51.100;13.998;2022-07-24T04:37:22;17.17;;;9.80;;
14076;SDS011;7114;51.100;13.998;2022-07-24T04:39:48;17.70;;;9.57;;
14076;SDS011;7114;51.100;13.998;2022-07-24T04:42:15;15.98;;;9.35;;
14076;SDS011;7114;51.100;13.998;2022-07-24T04:44:41;16.98;;;9.88;;
14076;SDS011;7114;51.100;13.998;2022-07-24T04:47:08;16.45;;;8.95;;
14076;SDS011;7114;51.100;13.998;2022-07-24T04:49:35;16.27;;;9.05;;
14076;SDS011;7114;51.100;13.998;2022-07-24T04:52:01;17.53;;;9.80;;
14076;SDS011;7114;51.100;13.998;2022-07-24T04:54:27;17.63;;;9.77;;
14076;SDS011;7114;51.100;13.998;2022-07-24T04:56:54;17.40;;;9.43;;
14076;SDS011;7114;51.100;13.998;2022-07-24T04:59:20;18.90;;;10.25;;
14076;SDS011;7114;51.100;13.998;2022-07-24T05:01:46;18.23;;;10.95;;
14076;SDS011;7114;51.100;13.998;2022-07-24T05:04:14;19.90;;;10.77;;
14076;SDS011;7114;51.100;13.998;2022-07-24T05:06:40;21.20;;;11.52;;
14076;SDS011;7114;51.100;13.998;2022-07-24T05:09:06;23.30;;;12.65;;
14076;SDS011;7114;51.100;13.998;2022-07-24T05:11:33;24.58;;;12.35;;
14076;SDS011;7114;51.100;13.998;2022-07-24T05:13:59;22.02;;;11.77;;
14076;SDS011;7114;51.100;13.998;2022-07-24T05:16:26;24.53;;;12.60;;
14076;SDS011;7114;51.100;13.998;2022-07-24T05:18:52;21.23;;;11.75;;
14076;SDS011;7114;51.100;13.998;2022-07-24T05:21:19;18.77;;;11.43;;
14076;SDS011;7114;51.100;13.998;2022-07-24T05:23:46;20.38;;;11.25;;
14076;SDS011;7114;51.100;13.998;2022-07-24T05:26:12;22.80;;;10.90;;
14076;SDS011;7114;51.100;13.998;2022-07-24T05:28:38;18.63;;;10.93;;
14076;SDS011;7114;51.100;13.998;2022-07-24T05:31:05;17.85;;;10.27;;
14076;SDS011;7114;51.100;13.998;2022-07-24T05:33:33;19.55;;;10.38;;
14076;SDS011;7114;51.100;13.998;2022-07-24T05:36:00;18.75;;;10.13;;
14076;SDS011;7114;51.100;13.998;2022-07-24T05:38:27;17.83;;;10.30;;
14076;SDS011;7114;51.100;13.998;2022-07-24T05:40:53;19.07;;;10.13;;
14076;SDS011;7114;51.100;13.998;2022-07-24T05:43:20;16.52;;;10.15;;
14076;SDS011;7114;51.100;13.998;2022-07-24T05:45:46;17.35;;;9.10;;
14076;SDS011;7114;51.100;13.998;2022-07-24T05:48:13;16.13;;;9.20;;
14076;SDS011;7114;51.100;13.998;2022-07-24T05:50:39;13.85;;;8.30;;
14076;SDS011;7114;51.100;13.998;2022-07-24T05:53:05;15.30;;;7.90;;
14076;SDS011;7114;51.100;13.998;2022-07-24T05:55:33;13.85;;;7.47;;
14076;SDS011;7114;51.100;13.998;2022-07-24T05:57:59;13.13;;;7.25;;
14076;SDS011;7114;51.100;13.998;2022-07-24T06:00:26;11.73;;;6.38;;
14076;SDS011;7114;51.100;13.998;2022-07-24T06:02:53;10.43;;;5.40;;
14076;SDS011;7114;51.100;13.998;2022-07-24T06:05:19;9.73;;;4.70;;
14076;SDS011;7114;51.100;13.998;2022-07-24T06:07:46;8.60;;;4.70;;
14076;SDS011;7114;51.100;13.998;2022-07-24T06:10:12;8.27;;;4.18;;
14076;SDS011;7114;51.100;13.998;2022-07-24T06:12:39;7.97;;;3.45;;
14076;SDS011;7114;51.100;13.998;2022-07-24T06:15:06;7.68;;;3.65;;
14076;SDS011;7114;51.100;13.998;2022-07-24T06:17:33;7.40;;;3.40;;
14076;SDS011;7114;51.100;13.998;2022-07-24T06:20:00;6.90;;;3.40;;
14076;SDS011;7114;51.100;13.998;2022-07-24T06:22:26;7.05;;;3.50;;
14076;SDS011;7114;51.100;13.998;2022-07-24T06:24:52;7.13;;;3.58;;
14076;SDS011;7114;51.100;13.998;2022-07-24T06:27:19;6.43;;;3.40;;
14076;SDS011;7114;51.100;13.998;2022-07-24T06:29:47;6.55;;;2.97;;
14076;SDS011;7114;51.100;13.998;2022-07-24T06:32:13;7.70;;;2.83;;
14076;SDS011;7114;51.100;13.998;2022-07-24T06:34:40;7.20;;;3.20;;
14076;SDS011;7114;51.100;13.998;2022-07-24T06:37:06;5.88;;;2.47;;
14076;SDS011;7114;51.100;13.998;2022-07-24T06:39:32;7.00;;;2.70;;
14076;SDS011;7114;51.100;13.998;2022-07-24T06:41:58;5.80;;;2.70;;
14076;SDS011;7114;51.100;13.998;2022-07-24T06:44:25;5.28;;;2.25;;
14076;SDS011;7114;51.100;13.998;2022-07-24T06:46:52;5.47;;;2.50;;
14076;SDS011;7114;51.100;13.998;2022-07-24T06:49:19;5.70;;;2.60;;
14076;SDS011;7114;51.100;13.998;2022-07-24T06:51:45;5.80;;;2.90;;
14076;SDS011;7114;51.100;13.998;2022-07-24T06:54:12;6.10;;;2.63;;
14076;SDS011;7114;51.100;13.998;2022-07-24T06:56:39;5.93;;;2.83;;
14076;SDS011;7114;51.100;13.998;2022-07-24T06:59:05;5.43;;;2.70;;
14076;SDS011;7114;51.100;13.998;2022-07-24T07:01:31;6.53;;;3.25;;
14076;SDS011;7114;51.100;13.998;2022-07-24T07:03:59;8.27;;;3.00;;
14076;SDS011;7114;51.100;13.998;2022-07-24T07:06:25;10.23;;;3.28;;
14076;SDS011;7114;51.100;13.998;2022-07-24T07:08:51;5.67;;;2.17;;
14076;SDS011;7114;51.100;13.998;2022-07-24T07:11:18;4.90;;;2.10;;
14076;SDS011;7114;51.100;13.998;2022-07-24T07:13:44;5.25;;;2.22;;
14076;SDS011;7114;51.100;13.998;2022-07-24T07:16:10;5.68;;;2.10;;
14076;SDS011;7114;51.100;13.998;2022-07-24T07:18:37;4.80;;;2.13;;
14076;SDS011;7114;51.100;13.998;2022-07-24T07:21:04;4.53;;;1.88;;
14076;SDS011;7114;51.100;13.998;2022-07-24T07:23:31;4.80;;;2.10;;
14076;SDS011;7114;51.100;13.998;2022-07-24T07:25:57;5.22;;;1.70;;
14076;SDS011;7114;51.100;13.998;2022-07-24T07:28:24;4.65;;;1.92;;
14076;SDS011;7114;51.100;13.998;2022-07-24T07:30:50;5.43;;;1.50;;
14076;SDS011;7114;51.100;13.998;2022-07-24T07:33:16;5.83;;;1.40;;
14076;SDS011;7114;51.100;13.998;2022-07-24T07:35:43;5.35;;;1.70;;
14076;SDS011;7114;51.100;13.998;2022-07-24T07:38:10;4.85;;;1.88;;
14076;SDS011;7114;51.100;13.998;2022-07-24T07:40:36;4.60;;;2.00;;
14076;SDS011;7114;51.100;13.998;2022-07-24T07:43:03;4.90;;;1.77;;
14076;SDS011;7114;51.100;13.998;2022-07-24T07:45:29;4.85;;;1.45;;
14076;SDS011;7114;51.100;13.998;2022-07-24T07:47:55;4.57;;;2.00;;
14076;SDS011;7114;51.100;13.998;2022-07-24T07:50:21;4.65;;;2.10;;
14076;SDS011;7114;51.100;13.998;2022-07-24T07:52:48;4.50;;;2.20;;
14076;SDS011;7114;51.100;13.998;2022-07-24T07:55:15;5.33;;;2.07;;
14076;SDS011;7114;51.100;13.998;2022-07-24T07:57:42;4.65;;;2.10;;
14076;SDS011;7114;51.100;13.998;2022-07-24T08:00:09;5.03;;;2.25;;
14076;SDS011;7114;51.100;13.998;2022-07-24T08:02:35;5.65;;;2.40;;
14076;SDS011;7114;51.100;13.998;2022-07-24T08:05:02;6.05;;;2.83;;
14076;SDS011;7114;51.100;13.998;2022-07-24T08:07:29;4.60;;;2.55;;
14076;SDS011;7114;51.100;13.998;2022-07-24T08:09:55;5.95;;;2.47;;
14076;SDS011;7114;51.100;13.998;2022-07-24T08:12:22;6.22;;;2.33;;
14076;SDS011;7114;51.100;13.998;2022-07-24T08:14:49;4.97;;;2.87;;
14076;SDS011;7114;51.100;13.998;2022-07-24T08:17:15;5.17;;;2.40;;
14076;SDS011;7114;51.100;13.998;2022-07-24T08:19:41;4.60;;;2.20;;
14076;SDS011;7114;51.100;13.998;2022-07-24T08:22:08;4.80;;;2.20;;
14076;SDS011;7114;51.100;13.998;2022-07-24T08:24:34;5.18;;;2.55;;
14076;SDS011;7114;51.100;13.998;2022-07-24T08:27:00;4.88;;;2.50;;
14076;SDS011;7114;51.100;13.998;2022-07-24T08:29:28;5.97;;;2.80;;
14076;SDS011;7114;51.100;13.998;2022-07-24T08:31:54;5.20;;;2.63;;
14076;SDS011;7114;51.100;13.998;2022-07-24T08:34:20;4.85;;;2.70;;
14076;SDS011;7114;51.100;13.998;2022-07-24T08:36:47;5.03;;;2.72;;
14076;SDS011;7114;51.100;13.998;2022-07-24T08:39:13;5.00;;;2.97;;
14076;SDS011;7114;51.100;13.998;2022-07-24T08:41:40;5.07;;;2.80;;
14076;SDS011;7114;51.100;13.998;2022-07-24T08:44:07;4.95;;;2.72;;
14076;SDS011;7114;51.100;13.998;2022-07-24T08:46:36;5.90;;;2.90;;
14076;SDS011;7114;51.100;13.998;2022-07-24T08:49:04;5.25;;;2.90;;
14076;SDS011;7114;51.100;13.998;2022-07-24T08:51:32;5.47;;;3.30;;
14076;SDS011;7114;51.100;13.998;2022-07-24T08:53:59;5.40;;;3.15;;
14076;SDS011;7114;51.100;13.998;2022-07-24T08:56:27;5.90;;;3.00;;
14076;SDS011;7114;51.100;13.998;2022-07-24T08:58:53;5.30;;;3.13;;
14076;SDS011;7114;51.100;13.998;2022-07-24T09:01:19;5.10;;;3.13;;
14076;SDS011;7114;51.100;13.998;2022-07-24T09:03:47;5.57;;;3.35;;
14076;SDS011;7114;51.100;13.998;2022-07-24T09:06:14;5.05;;;3.50;;
14076;SDS011;7114;51.100;13.998;2022-07-24T09:08:41;5.20;;;3.22;;
14076;SDS011;7114;51.100;13.998;2022-07-24T09:11:08;6.20;;;3.50;;
14076;SDS011;7114;51.100;13.998;2022-07-24T09:13:35;5.40;;;3.40;;
14076;SDS011;7114;51.100;13.998;2022-07-24T09:16:20;5.67;;;3.80;;
14076;SDS011;7114;51.100;13.998;2022-07-24T09:18:50;5.47;;;3.70;;
14076;SDS011;7114;51.100;13.998;2022-07-24T09:21:17;5.63;;;3.78;;
14076;SDS011;7114;51.100;13.998;2022-07-24T09:23:44;5.43;;;3.70;;
14076;SDS011;7114;51.100;13.998;2022-07-24T09:26:10;6.07;;;3.63;;
14076;SDS011;7114;51.100;13.998;2022-07-24T09:28:46;6.22;;;4.05;;
14076;SDS011;7114;51.100;13.998;2022-07-24T09:31:14;5.60;;;4.00;;
14076;SDS011;7114;51.100;13.998;2022-07-24T09:33:40;5.63;;;4.27;;
14076;SDS011;7114;51.100;13.998;2022-07-24T09:36:12;5.50;;;3.47;;
14076;SDS011;7114;51.100;13.998;2022-07-24T09:38:39;5.50;;;3.80;;
14076;SDS011;7114;51.100;13.998;2022-07-24T09:41:10;7.78;;;3.90;;
14076;SDS011;7114;51.100;13.998;2022-07-24T09:43:37;6.32;;;4.00;;
14076;SDS011;7114;51.100;13.998;2022-07-24T09:46:04;6.13;;;4.30;;
14076;SDS011;7114;51.100;13.998;2022-07-24T09:48:31;5.70;;;3.93;;
14076;SDS011;7114;51.100;13.998;2022-07-24T09:51:00;6.20;;;4.13;;
14076;SDS011;7114;51.100;13.998;2022-07-24T09:53:30;5.72;;;4.10;;
14076;SDS011;7114;51.100;13.998;2022-07-24T09:56:01;6.10;;;4.22;;
14076;SDS011;7114;51.100;13.998;2022-07-24T09:58:30;5.78;;;4.30;;
14076;SDS011;7114;51.100;13.998;2022-07-24T10:00:57;6.50;;;4.33;;
14076;SDS011;7114;51.100;13.998;2022-07-24T10:03:26;7.57;;;4.50;;
14076;SDS011;7114;51.100;13.998;2022-07-24T10:05:54;6.25;;;4.80;;
14076;SDS011;7114;51.100;13.998;2022-07-24T10:08:22;5.85;;;4.90;;
14076;SDS011;7114;51.100;13.998;2022-07-24T10:10:50;6.32;;;4.70;;
14076;SDS011;7114;51.100;13.998;2022-07-24T10:13:16;6.07;;;4.68;;
14076;SDS011;7114;51.100;13.998;2022-07-24T10:15:47;5.70;;;4.40;;
14076;SDS011;7114;51.100;13.998;2022-07-24T10:18:17;6.67;;;5.10;;
14076;SDS011;7114;51.100;13.998;2022-07-24T10:20:47;6.25;;;5.00;;
14076;SDS011;7114;51.100;13.998;2022-07-24T10:23:19;5.80;;;4.88;;
14076;SDS011;7114;51.100;13.998;2022-07-24T10:25:53;6.25;;;5.10;;
14076;SDS011;7114;51.100;13.998;2022-07-24T10:28:34;6.20;;;5.20;;
14076;SDS011;7114;51.100;13.998;2022-07-24T10:31:04;6.83;;;5.50;;
14076;SDS011;7114;51.100;13.998;2022-07-24T10:33:32;6.15;;;5.10;;
14076;SDS011;7114;51.100;13.998;2022-07-24T10:35:58;6.55;;;5.68;;
14076;SDS011;7114;51.100;13.998;2022-07-24T10:38:28;6.07;;;5.47;;
14076;SDS011;7114;51.100;13.998;2022-07-24T10:40:59;7.68;;;6.00;;
14076;SDS011;7114;51.100;13.998;2022-07-24T10:43:28;7.87;;;5.47;;
14076;SDS011;7114;51.100;13.998;2022-07-24T10:46:09;6.93;;;5.50;;
14076;SDS011;7114;51.100;13.998;2022-07-24T10:48:37;5.85;;;4.90;;
14076;SDS011;7114;51.100;13.998;2022-07-24T10:51:06;6.05;;;4.90;;
14076;SDS011;7114;51.100;13.998;2022-07-24T10:53:42;7.18;;;5.38;;
14076;SDS011;7114;51.100;13.998;2022-07-24T10:56:18;6.93;;;4.93;;
14076;SDS011;7114;51.100;13.998;2022-07-24T10:58:57;6.00;;;5.30;;
14076;SDS011;7114;51.100;13.998;2022-07-24T11:01:27;6.43;;;5.25;;
14076;SDS011;7114;51.100;13.998;2022-07-24T11:04:00;8.05;;;5.82;;
14076;SDS011;7114;51.100;13.998;2022-07-24T11:06:40;6.00;;;4.78;;
14076;SDS011;7114;51.100;13.998;2022-07-24T11:09:08;7.75;;;4.88;;
14076;SDS011;7114;51.100;13.998;2022-07-24T11:11:40;6.70;;;5.53;;
14076;SDS011;7114;51.100;13.998;2022-07-24T11:14:08;6.25;;;5.65;;
14076;SDS011;7114;51.100;13.998;2022-07-24T11:16:36;6.75;;;5.78;;
14076;SDS011;7114;51.100;13.998;2022-07-24T11:22:02;7.65;;;5.60;;
14076;SDS011;7114;51.100;13.998;2022-07-24T11:24:30;5.93;;;5.20;;
14076;SDS011;7114;51.100;13.998;2022-07-24T11:26:58;6.07;;;4.80;;
14076;SDS011;7114;51.100;13.998;2022-07-24T11:29:25;6.05;;;5.35;;
14076;SDS011;7114;51.100;13.998;2022-07-24T11:31:53;6.50;;;5.70;;
14076;SDS011;7114;51.100;13.998;2022-07-24T11:34:20;6.28;;;5.68;;
14076;SDS011;7114;51.100;13.998;2022-07-24T11:36:47;6.85;;;6.15;;
14076;SDS011;7114;51.100;13.998;2022-07-24T11:39:15;6.10;;;5.47;;
14076;SDS011;7114;51.100;13.998;2022-07-24T11:41:43;6.67;;;5.53;;
14076;SDS011;7114;51.100;13.998;2022-07-24T11:44:12;6.40;;;5.70;;
14076;SDS011;7114;51.100;13.998;2022-07-24T11:46:39;6.65;;;5.95;;
14076;SDS011;7114;51.100;13.998;2022-07-24T11:49:07;10.50;;;6.95;;
14076;SDS011;7114;51.100;13.998;2022-07-24T11:51:40;7.45;;;6.15;;
14076;SDS011;7114;51.100;13.998;2022-07-24T11:54:06;7.57;;;6.20;;
14076;SDS011;7114;51.100;13.998;2022-07-24T11:56:33;7.03;;;6.32;;
14076;SDS011;7114;51.100;13.998;2022-07-24T11:58:59;8.02;;;7.15;;
14076;SDS011;7114;51.100;13.998;2022-07-24T12:01:27;8.43;;;7.63;;
14076;SDS011;7114;51.100;13.998;2022-07-24T12:03:53;7.82;;;7.13;;
14076;SDS011;7114;51.100;13.998;2022-07-24T12:06:22;7.20;;;6.50;;
14076;SDS011;7114;51.100;13.998;2022-07-24T12:08:48;6.80;;;6.20;;
14076;SDS011;7114;51.100;13.998;2022-07-24T12:11:19;7.00;;;6.07;;
14076;SDS011;7114;51.100;13.998;2022-07-24T12:13:46;7.28;;;6.57;;
14076;SDS011;7114;51.100;13.998;2022-07-24T12:16:14;6.75;;;6.05;;
14076;SDS011;7114;51.100;13.998;2022-07-24T12:18:41;6.97;;;6.27;;
14076;SDS011;7114;51.100;13.998;2022-07-24T12:21:08;7.10;;;6.40;;
14076;SDS011;7114;51.100;13.998;2022-07-24T12:23:34;6.97;;;6.28;;
14076;SDS011;7114;51.100;13.998;2022-07-24T12:26:01;7.95;;;6.15;;
14076;SDS011;7114;51.100;13.998;2022-07-24T12:28:27;7.10;;;6.40;;
14076;SDS011;7114;51.100;13.998;2022-07-24T12:30:54;8.50;;;5.97;;
14076;SDS011;7114;51.100;13.998;2022-07-24T12:33:21;7.80;;;6.38;;
14076;SDS011;7114;51.100;13.998;2022-07-24T12:35:54;7.65;;;6.30;;
14076;SDS011;7114;51.100;13.998;2022-07-24T12:38:25;7.68;;;6.88;;
14076;SDS011;7114;51.100;13.998;2022-07-24T12:41:00;7.88;;;6.22;;
14076;SDS011;7114;51.100;13.998;2022-07-24T12:43:27;7.53;;;6.80;;
14076;SDS011;7114;51.100;13.998;2022-07-24T12:46:03;7.50;;;6.80;;
14076;SDS011;7114;51.100;13.998;2022-07-24T12:48:30;8.10;;;7.40;;
14076;SDS011;7114;51.100;13.998;2022-07-24T12:50:59;7.10;;;6.40;;
14076;SDS011;7114;51.100;13.998;2022-07-24T12:53:27;7.78;;;7.07;;
14076;SDS011;7114;51.100;13.998;2022-07-24T12:56:02;8.20;;;7.50;;
14076;SDS011;7114;51.100;13.998;2022-07-24T12:58:29;7.63;;;6.93;;
14076;SDS011;7114;51.100;13.998;2022-07-24T13:00:56;7.85;;;7.15;;
14076;SDS011;7114;51.100;13.998;2022-07-24T13:03:24;7.75;;;6.95;;
14076;SDS011;7114;51.100;13.998;2022-07-24T13:05:53;7.75;;;7.05;;
14076;SDS011;7114;51.100;13.998;2022-07-24T13:08:22;7.47;;;6.67;;
14076;SDS011;7114;51.100;13.998;2022-07-24T13:10:48;7.17;;;6.47;;
14076;SDS011;7114;51.100;13.998;2022-07-24T13:13:14;6.93;;;6.20;;
14076;SDS011;7114;51.100;13.998;2022-07-24T13:15:41;7.10;;;6.40;;
14076;SDS011;7114;51.100;13.998;2022-07-24T13:18:07;8.13;;;6.70;;
14076;SDS011;7114;51.100;13.998;2022-07-24T13:20:33;7.55;;;6.55;;
14076;SDS011;7114;51.100;13.998;2022-07-24T13:22:59;7.70;;;6.90;;
14076;SDS011;7114;51.100;13.998;2022-07-24T13:25:27;7.35;;;6.15;;
14076;SDS011;7114;51.100;13.998;2022-07-24T13:27:53;7.80;;;7.00;;
14076;SDS011;7114;51.100;13.998;2022-07-24T13:30:20;7.70;;;6.97;;
14076;SDS011;7114;51.100;13.998;2022-07-24T13:32:46;9.00;;;8.10;;
14076;SDS011;7114;51.100;13.998;2022-07-24T13:35:12;7.83;;;6.87;;
14076;SDS011;7114;51.100;13.998;2022-07-24T13:37:38;7.80;;;7.10;;
14076;SDS011;7114;51.100;13.998;2022-07-24T13:40:06;7.93;;;7.13;;
14076;SDS011;7114;51.100;13.998;2022-07-24T13:42:37;8.13;;;7.43;;
14076;SDS011;7114;51.100;13.998;2022-07-24T13:45:05;8.05;;;7.28;;
14076;SDS011;7114;51.100;13.998;2022-07-24T13:47:32;7.27;;;6.57;;
14076;SDS011;7114;51.100;13.998;2022-07-24T13:49:58;8.10;;;7.30;;
14076;SDS011;7114;51.100;13.998;2022-07-24T13:52:25;7.75;;;6.93;;
14076;SDS011;7114;51.100;13.998;2022-07-24T13:54:51;7.57;;;6.85;;
14076;SDS011;7114;51.100;13.998;2022-07-24T13:57:17;7.22;;;6.53;;
14076;SDS011;7114;51.100;13.998;2022-07-24T13:59:45;7.27;;;6.33;;
14076;SDS011;7114;51.100;13.998;2022-07-24T14:02:11;7.05;;;6.03;;
14076;SDS011;7114;51.100;13.998;2022-07-24T14:04:39;7.35;;;5.75;;
14076;SDS011;7114;51.100;13.998;2022-07-24T14:07:06;6.95;;;5.90;;
14076;SDS011;7114;51.100;13.998;2022-07-24T14:09:32;12.20;;;6.80;;
14076;SDS011;7114;51.100;13.998;2022-07-24T14:11:58;10.77;;;6.63;;
14076;SDS011;7114;51.100;13.998;2022-07-24T14:14:25;8.13;;;6.40;;
14076;SDS011;7114;51.100;13.998;2022-07-24T14:16:54;7.57;;;6.10;;
14076;SDS011;7114;51.100;13.998;2022-07-24T14:19:21;7.63;;;6.00;;
14076;SDS011;7114;51.100;13.998;2022-07-24T14:21:47;8.90;;;5.65;;
14076;SDS011;7114;51.100;13.998;2022-07-24T14:24:14;7.63;;;5.60;;
14076;SDS011;7114;51.100;13.998;2022-07-24T14:26:41;8.60;;;5.73;;
14076;SDS011;7114;51.100;13.998;2022-07-24T14:29:07;8.18;;;5.00;;
14076;SDS011;7114;51.100;13.998;2022-07-24T14:31:33;8.65;;;5.20;;
14076;SDS011;7114;51.100;13.998;2022-07-24T14:34:01;10.02;;;5.28;;
14076;SDS011;7114;51.100;13.998;2022-07-24T14:36:28;9.35;;;5.07;;
14076;SDS011;7114;51.100;13.998;2022-07-24T14:38:54;9.73;;;5.33;;
14076;SDS011;7114;51.100;13.998;2022-07-24T14:41:20;10.53;;;5.37;;
14076;SDS011;7114;51.100;13.998;2022-07-24T14:43:47;11.43;;;4.70;;